createdAt,value
2022-09-16T00:01:45.480Z,2.60
2022-09-16T00:04:13.658Z,2.70
2022-09-16T00:06:41.783Z,2.80
2022-09-16T00:09:11.578Z,2.60
2022-09-16T00:11:48.268Z,3.47
2022-09-16T00:14:17.775Z,2.88
2022-09-16T00:16:52.932Z,2.88
2022-09-16T00:19:23.303Z,3.35
2022-09-16T00:21:51.744Z,2.53
2022-09-16T00:24:19.796Z,2.88
2022-09-16T00:26:47.951Z,2.70
2022-09-16T00:29:17.444Z,2.78
2022-09-16T00:31:53.783Z,2.60
2022-09-16T00:34:22.161Z,2.90
2022-09-16T00:36:50.366Z,2.78
2022-09-16T00:39:18.606Z,2.70
2022-09-16T00:41:47.659Z,3.20
2022-09-16T00:45:05.571Z,2.83
2022-09-16T00:47:44.814Z,2.80
2022-09-16T00:50:18.102Z,2.65
2022-09-16T00:52:46.807Z,2.80
2022-09-16T00:55:22.362Z,2.90
2022-09-16T00:57:51.737Z,2.80
2022-09-16T01:00:20.043Z,3.38
2022-09-16T01:02:51.380Z,2.88
2022-09-16T01:05:23.441Z,2.70
2022-09-16T01:07:58.691Z,2.92
2022-09-16T01:10:27.786Z,2.90
2022-09-16T01:13:01.369Z,2.92
2022-09-16T01:15:37.141Z,3.20
2022-09-16T01:18:21.628Z,3.05
2022-09-16T01:21:12.504Z,3.50
2022-09-16T01:24:11.193Z,2.90
2022-09-16T01:26:58.868Z,3.83
2022-09-16T01:30:05.863Z,2.95
2022-09-16T01:32:48.429Z,2.90
2022-09-16T01:35:23.498Z,3.05
2022-09-16T01:38:02.173Z,2.95
2022-09-16T01:40:35.703Z,3.05
2022-09-16T01:43:15.517Z,3.40
2022-09-16T01:45:50.527Z,2.80
2022-09-16T01:48:27.558Z,3.42
2022-09-16T01:51:02.363Z,3.08
2022-09-16T01:53:35.252Z,2.72
2022-09-16T01:56:10.987Z,2.72
2022-09-16T01:58:46.684Z,3.40
2022-09-16T02:01:19.411Z,3.22
2022-09-16T02:04:00.246Z,3.58
2022-09-16T02:06:30.936Z,2.85
2022-09-16T02:09:03.950Z,3.05
2022-09-16T02:11:35.020Z,3.28
2022-09-16T02:14:07.119Z,3.08
2022-09-16T02:16:40.273Z,3.50
2022-09-16T02:19:11.776Z,3.25
2022-09-16T02:21:45.869Z,2.60
2022-09-16T02:24:18.356Z,3.00
2022-09-16T02:26:49.686Z,2.90
2022-09-16T02:29:29.972Z,2.85
2022-09-16T02:32:02.175Z,3.30
2022-09-16T02:34:36.883Z,2.92
2022-09-16T02:37:10.282Z,2.90
2022-09-16T02:39:42.344Z,2.75
2022-09-16T02:42:10.523Z,3.08
2022-09-16T02:44:38.703Z,2.97
2022-09-16T02:47:13.627Z,2.80
2022-09-16T02:49:58.267Z,3.38
2022-09-16T02:52:36.248Z,3.05
2022-09-16T02:55:11.639Z,3.05
2022-09-16T02:57:39.795Z,2.65
2022-09-16T03:00:09.251Z,3.03
2022-09-16T03:02:37.572Z,3.45
2022-09-16T03:05:07.704Z,3.83
2022-09-16T03:07:35.706Z,3.78
2022-09-16T03:10:04.195Z,3.70
2022-09-16T03:12:52.093Z,3.55
2022-09-16T03:15:37.321Z,3.38
2022-09-16T03:18:37.976Z,3.28
2022-09-16T03:21:16.257Z,3.50
2022-09-16T03:23:53.251Z,3.78
2022-09-16T03:26:28.575Z,3.50
2022-09-16T03:29:12.342Z,3.00
2022-09-16T03:31:47.407Z,3.25
2022-09-16T03:34:21.256Z,3.45
2022-09-16T03:36:53.702Z,3.13
2022-09-16T03:39:22.574Z,3.65
2022-09-16T03:41:50.995Z,3.28
2022-09-16T03:44:33.639Z,3.30
2022-09-16T03:47:04.288Z,3.42
2022-09-16T03:49:32.691Z,3.17
2022-09-16T03:52:02.297Z,3.00
2022-09-16T03:54:30.450Z,3.15
2022-09-16T03:57:00.551Z,3.08
2022-09-16T03:59:34.656Z,3.20
2022-09-16T04:02:14.867Z,3.17
2022-09-16T04:04:44.896Z,3.22
2022-09-16T04:07:14.393Z,3.70
2022-09-16T04:09:44.454Z,3.70
2022-09-16T04:12:12.588Z,3.72
2022-09-16T04:14:50.733Z,3.67
2022-09-16T04:17:18.773Z,4.55
2022-09-16T04:19:46.793Z,3.53
2022-09-16T04:22:31.155Z,4.20
2022-09-16T04:25:08.150Z,3.65
2022-09-16T04:27:36.370Z,3.47
2022-09-16T04:30:04.740Z,3.75
2022-09-16T04:32:38.993Z,3.35
2022-09-16T04:35:07.967Z,3.53
2022-09-16T04:37:37.340Z,3.58
2022-09-16T04:40:06.009Z,4.07
2022-09-16T04:42:34.132Z,5.57
2022-09-16T04:45:20.915Z,3.58
2022-09-16T04:47:56.554Z,3.75
2022-09-16T04:50:25.096Z,3.55
2022-09-16T04:52:54.466Z,3.72
2022-09-16T04:55:23.987Z,3.30
2022-09-16T04:57:52.491Z,3.40
2022-09-16T05:00:20.611Z,3.47
2022-09-16T05:02:49.796Z,3.50
2022-09-16T05:05:18.319Z,3.50
2022-09-16T05:07:46.439Z,3.83
2022-09-16T05:10:18.854Z,3.28
2022-09-16T05:12:51.408Z,3.40
2022-09-16T05:15:25.356Z,3.13
2022-09-16T05:17:54.418Z,3.20
2022-09-16T05:20:22.641Z,3.20
2022-09-16T05:22:51.566Z,3.63
2022-09-16T05:25:21.332Z,3.13
2022-09-16T05:27:51.657Z,3.53
2022-09-16T05:30:26.739Z,3.47
2022-09-16T05:32:56.897Z,3.22
2022-09-16T05:35:43.275Z,3.80
2022-09-16T05:38:23.068Z,3.30
2022-09-16T05:40:57.429Z,3.45
2022-09-16T05:43:33.300Z,3.05
2022-09-16T05:46:10.818Z,3.10
2022-09-16T05:48:42.653Z,3.22
2022-09-16T05:51:24.353Z,5.05
2022-09-16T05:54:03.274Z,3.00
2022-09-16T05:56:37.219Z,3.50
2022-09-16T05:59:16.601Z,3.00
2022-09-16T06:01:46.368Z,3.10
2022-09-16T06:04:37.238Z,3.08
2022-09-16T06:07:11.421Z,3.20
2022-09-16T06:09:44.342Z,3.35
2022-09-16T06:12:21.642Z,3.40
2022-09-16T06:15:01.785Z,3.90
2022-09-16T06:17:36.432Z,3.63
2022-09-16T06:20:24.779Z,3.13
2022-09-16T06:23:22.633Z,3.13
2022-09-16T06:26:21.225Z,3.17
2022-09-16T06:29:22.270Z,3.05
2022-09-16T06:31:55.471Z,3.42
2022-09-16T06:34:29.238Z,3.58
2022-09-16T06:37:18.716Z,3.85
2022-09-16T06:40:14.082Z,3.60
2022-09-16T06:42:49.898Z,4.25
2022-09-16T06:45:40.526Z,3.53
2022-09-16T06:48:18.632Z,3.72
2022-09-16T06:50:49.842Z,4.20
2022-09-16T06:53:21.406Z,4.60
2022-09-16T06:55:58.393Z,4.07
2022-09-16T06:58:39.938Z,4.00
2022-09-16T07:01:19.197Z,4.55
2022-09-16T07:03:57.755Z,4.28
2022-09-16T07:09:32.460Z,4.40
2022-09-16T07:12:19.523Z,4.55
2022-09-16T07:14:52.325Z,4.13
2022-09-16T07:17:30.332Z,4.03
2022-09-16T07:20:05.707Z,4.85
2022-09-16T07:22:45.673Z,4.22
2022-09-16T07:25:20.201Z,4.18
2022-09-16T07:27:55.140Z,4.53
2022-09-16T07:30:39.272Z,4.28
2022-09-16T07:33:12.415Z,3.58
2022-09-16T07:35:45.741Z,4.20
2022-09-16T07:38:21.136Z,4.55
2022-09-16T07:40:55.565Z,3.88
2022-09-16T07:43:24.808Z,4.03
2022-09-16T07:46:04.561Z,4.10
2022-09-16T07:48:44.247Z,4.60
2022-09-16T07:51:18.259Z,4.82
2022-09-16T07:53:50.400Z,4.07
2022-09-16T07:56:26.352Z,4.07
2022-09-16T07:58:59.470Z,4.18
2022-09-16T08:01:34.637Z,3.58
2022-09-16T08:04:11.397Z,3.80
2022-09-16T08:06:53.297Z,3.83
2022-09-16T08:09:39.709Z,4.05
2022-09-16T08:12:28.235Z,4.13
2022-09-16T08:15:22.540Z,4.07
2022-09-16T08:17:58.054Z,4.22
2022-09-16T08:20:38.957Z,3.65
2022-09-16T08:23:33.109Z,3.70
2022-09-16T08:26:05.280Z,3.42
2022-09-16T08:28:45.470Z,3.55
2022-09-16T08:31:33.624Z,3.30
2022-09-16T08:34:15.873Z,3.65
2022-09-16T08:36:55.688Z,3.40
2022-09-16T08:39:28.483Z,3.35
2022-09-16T08:42:25.597Z,3.20
2022-09-16T08:45:16.247Z,3.50
2022-09-16T08:48:14.748Z,3.40
2022-09-16T08:50:50.734Z,3.45
2022-09-16T08:53:47.417Z,2.92
2022-09-16T08:56:23.745Z,3.17
2022-09-16T08:58:57.161Z,2.90
2022-09-16T09:01:44.010Z,3.10
2022-09-16T09:04:17.426Z,3.00
2022-09-16T09:07:01.291Z,2.75
2022-09-16T09:09:48.349Z,2.80
2022-09-16T09:12:30.449Z,3.25
2022-09-16T09:15:16.264Z,2.80
2022-09-16T09:17:58.703Z,3.15
2022-09-16T09:20:57.262Z,3.38
2022-09-16T09:23:45.078Z,2.83
2022-09-16T09:26:26.050Z,3.33
2022-09-16T09:29:10.596Z,2.70
2022-09-16T09:31:55.731Z,2.60
2022-09-16T09:34:50.998Z,2.78
2022-09-16T09:37:42.410Z,2.67
2022-09-16T09:40:18.333Z,2.60
2022-09-16T09:42:53.818Z,2.67
2022-09-16T09:45:30.877Z,2.60
2022-09-16T09:48:07.534Z,2.65
2022-09-16T09:50:48.784Z,2.58
2022-09-16T09:53:25.148Z,2.70
2022-09-16T09:56:04.947Z,2.65
2022-09-16T09:58:50.421Z,2.70
2022-09-16T10:01:23.305Z,3.17
2022-09-16T10:03:56.228Z,2.92
2022-09-16T10:06:42.907Z,2.65
2022-09-16T10:09:21.873Z,2.65
2022-09-16T10:12:02.789Z,2.63
2022-09-16T10:14:45.134Z,3.17
2022-09-16T10:17:18.740Z,2.10
2022-09-16T10:20:04.319Z,2.97
2022-09-16T10:22:41.095Z,1.45
2022-09-16T10:25:32.060Z,1.05
2022-09-16T10:28:07.558Z,1.30
2022-09-16T10:30:51.304Z,1.10
2022-09-16T10:33:34.444Z,0.90
2022-09-16T10:36:11.501Z,1.00
2022-09-16T10:38:43.065Z,1.10
2022-09-16T10:41:26.177Z,1.10
2022-09-16T10:44:01.451Z,0.77
2022-09-16T10:46:34.674Z,1.00
2022-09-16T10:49:28.587Z,1.08
2022-09-16T10:52:19.568Z,1.10
2022-09-16T10:55:00.498Z,1.08
2022-09-16T10:57:44.811Z,1.00
2022-09-16T11:00:21.093Z,0.82
2022-09-16T11:03:45.399Z,0.88
2022-09-16T11:06:35.978Z,1.15
2022-09-16T11:09:19.359Z,0.98
2022-09-16T11:12:11.128Z,1.02
2022-09-16T11:14:50.485Z,1.13
2022-09-16T11:17:43.320Z,1.38
2022-09-16T11:20:44.155Z,1.35
2022-09-16T11:23:30.233Z,1.27
2022-09-16T11:26:13.172Z,1.20
2022-09-16T11:29:00.923Z,1.20
2022-09-16T11:31:48.493Z,1.20
2022-09-16T11:34:36.970Z,1.25
2022-09-16T11:37:21.517Z,0.95
2022-09-16T11:40:08.957Z,1.38
2022-09-16T11:42:59.225Z,1.20
2022-09-16T11:45:53.859Z,1.85
2022-09-16T11:49:19.395Z,1.80
2022-09-16T11:52:16.088Z,1.45
2022-09-16T11:55:04.651Z,1.73
2022-09-16T11:57:57.297Z,1.40
2022-09-16T12:00:31.862Z,1.30
2022-09-16T12:03:08.921Z,1.55
2022-09-16T12:05:45.859Z,1.63
2022-09-16T12:08:32.494Z,2.17
2022-09-16T12:11:05.044Z,2.10
2022-09-16T12:13:42.848Z,3.35
2022-09-16T12:16:32.632Z,2.33
2022-09-16T12:19:22.411Z,2.08
2022-09-16T12:21:58.341Z,2.40
2022-09-16T12:24:46.126Z,2.15
2022-09-16T12:27:24.918Z,2.30
2022-09-16T12:29:59.999Z,2.63
2022-09-16T12:32:39.832Z,2.60
2022-09-16T12:35:23.298Z,2.58
2022-09-16T12:38:12.423Z,2.63
2022-09-16T12:41:11.747Z,2.28
2022-09-16T12:44:02.242Z,2.08
2022-09-16T12:46:57.064Z,2.30
2022-09-16T12:49:55.822Z,2.70
2022-09-16T12:52:44.363Z,2.25
2022-09-16T12:56:00.624Z,2.08
2022-09-16T12:58:56.300Z,2.20
2022-09-16T13:01:36.585Z,2.58
2022-09-16T13:04:19.916Z,2.45
2022-09-16T13:06:56.432Z,2.40
2022-09-16T13:09:29.172Z,2.80
2022-09-16T13:15:00.191Z,2.17
2022-09-16T13:17:34.479Z,2.50
2022-09-16T13:20:14.148Z,2.38
2022-09-16T13:23:09.042Z,2.28
2022-09-16T13:26:03.040Z,2.50
2022-09-16T13:28:47.937Z,2.28
2022-09-16T13:31:34.652Z,2.50
2022-09-16T13:34:16.182Z,2.33
2022-09-16T13:36:50.614Z,2.45
2022-09-16T13:39:30.387Z,2.40
2022-09-16T13:41:58.925Z,2.40
2022-09-16T13:44:40.808Z,2.53
2022-09-16T13:47:17.511Z,2.50
2022-09-16T13:49:50.009Z,2.50
2022-09-16T13:52:25.548Z,2.50
2022-09-16T13:55:11.625Z,2.65
2022-09-16T13:57:50.190Z,2.75
2022-09-16T14:00:23.688Z,2.20
2022-09-16T14:03:08.487Z,2.30
2022-09-16T14:06:12.168Z,2.95
2022-09-16T14:08:47.131Z,2.40
2022-09-16T14:11:21.398Z,2.63
2022-09-16T14:14:00.810Z,2.63
2022-09-16T14:16:35.964Z,2.47
2022-09-16T14:19:09.002Z,2.55
2022-09-16T14:21:39.242Z,2.55
2022-09-16T14:24:18.154Z,2.92
2022-09-16T14:26:53.449Z,2.70
2022-09-16T14:29:22.154Z,2.95
2022-09-16T14:31:52.252Z,2.65
2022-09-16T14:34:28.619Z,2.65
2022-09-16T14:36:56.878Z,2.75
2022-09-16T14:39:27.770Z,2.97
2022-09-16T14:41:58.704Z,2.45
2022-09-16T14:44:35.036Z,2.92
2022-09-16T14:47:09.555Z,2.35
2022-09-16T14:49:45.280Z,2.67
2022-09-16T14:52:20.647Z,2.45
2022-09-16T14:54:52.605Z,2.63
2022-09-16T14:57:23.068Z,2.50
2022-09-16T14:59:53.359Z,3.22
2022-09-16T15:02:29.841Z,2.42
2022-09-16T15:05:02.792Z,2.55
2022-09-16T15:07:56.291Z,2.80
2022-09-16T15:10:35.858Z,2.28
2022-09-16T15:13:22.753Z,2.63
2022-09-16T15:15:53.554Z,2.45
2022-09-16T15:18:26.937Z,2.40
2022-09-16T15:21:05.832Z,2.45
2022-09-16T15:23:34.730Z,2.33
2022-09-16T15:26:20.508Z,2.38
2022-09-16T15:28:57.674Z,2.53
2022-09-16T15:31:34.720Z,3.10
2022-09-16T15:34:05.670Z,2.75
2022-09-16T15:36:40.907Z,2.53
2022-09-16T15:39:29.882Z,2.50
2022-09-16T15:42:12.190Z,2.08
2022-09-16T15:44:47.586Z,2.45
2022-09-16T15:47:21.671Z,2.15
2022-09-16T15:50:10.221Z,2.35
2022-09-16T15:52:55.484Z,2.30
2022-09-16T15:55:32.012Z,2.28
2022-09-16T15:58:04.972Z,2.50
2022-09-16T16:00:57.718Z,2.72
2022-09-16T16:03:25.931Z,2.45
2022-09-16T16:05:55.396Z,2.67
2022-09-16T16:08:44.410Z,2.67
2022-09-16T16:11:14.096Z,2.42
2022-09-16T16:13:43.291Z,2.67
2022-09-16T16:16:13.024Z,2.38
2022-09-16T16:18:42.537Z,2.80
2022-09-16T16:21:12.107Z,2.58
2022-09-16T16:23:43.321Z,2.75
2022-09-16T16:26:12.578Z,2.65
2022-09-16T16:28:40.564Z,2.65
2022-09-16T16:31:10.347Z,3.70
2022-09-16T16:33:41.412Z,2.83
2022-09-16T16:36:12.610Z,2.70
2022-09-16T16:38:41.980Z,2.42
2022-09-16T16:41:12.099Z,2.95
2022-09-16T16:43:40.291Z,2.97
2022-09-16T16:46:08.859Z,2.58
2022-09-16T16:48:38.109Z,2.53
2022-09-16T16:51:08.778Z,3.17
2022-09-16T16:53:37.519Z,2.25
2022-09-16T16:56:14.458Z,2.75
2022-09-16T16:58:44.070Z,2.65
2022-09-16T17:01:13.964Z,2.72
2022-09-16T17:03:43.148Z,2.50
2022-09-16T17:06:11.606Z,2.80
2022-09-16T17:08:40.128Z,2.78
2022-09-16T17:11:12.000Z,2.92
2022-09-16T17:13:41.288Z,2.70
2022-09-16T17:16:10.388Z,3.20
2022-09-16T17:18:40.395Z,2.90
2022-09-16T17:21:10.714Z,2.75
2022-09-16T17:23:39.228Z,3.03
2022-09-16T17:26:10.735Z,3.20
2022-09-16T17:28:40.295Z,2.88
2022-09-16T17:31:11.256Z,2.67
2022-09-16T17:33:48.009Z,2.88
2022-09-16T17:36:18.409Z,2.70
2022-09-16T17:38:46.444Z,2.70
2022-09-16T17:41:26.924Z,2.67
2022-09-16T17:43:55.602Z,2.65
2022-09-16T17:46:28.777Z,2.72
2022-09-16T17:49:01.030Z,3.10
2022-09-16T17:51:29.500Z,2.90
2022-09-16T17:53:59.023Z,3.25
2022-09-16T17:56:28.570Z,2.60
2022-09-16T17:58:58.989Z,3.08
2022-09-16T18:01:34.483Z,2.65
2022-09-16T18:04:03.333Z,2.70
2022-09-16T18:06:35.624Z,3.40
2022-09-16T18:09:07.348Z,2.83
2022-09-16T18:11:38.652Z,2.45
2022-09-16T18:14:08.586Z,2.30
2022-09-16T18:16:39.124Z,2.88
2022-09-16T18:19:14.088Z,2.70
2022-09-16T18:21:42.243Z,2.40
2022-09-16T18:24:13.550Z,2.38
2022-09-16T18:26:43.195Z,2.85
2022-09-16T18:29:17.453Z,3.60
2022-09-16T18:31:47.513Z,2.97
2022-09-16T18:34:17.084Z,2.42
2022-09-16T18:36:46.412Z,2.88
2022-09-16T18:39:16.731Z,2.95
2022-09-16T18:41:47.548Z,2.70
2022-09-16T18:44:19.567Z,3.25
2022-09-16T18:46:54.287Z,2.60
2022-09-16T18:49:24.053Z,3.03
2022-09-16T18:51:53.251Z,3.03
2022-09-16T18:54:29.767Z,2.90
2022-09-16T18:57:07.231Z,3.28
2022-09-16T18:59:36.686Z,2.80
2022-09-16T19:02:05.646Z,3.58
2022-09-16T19:04:39.595Z,3.08
2022-09-16T19:07:09.078Z,3.70
2022-09-16T19:09:51.093Z,2.50
2022-09-16T19:12:22.528Z,2.85
2022-09-16T19:15:01.864Z,2.83
2022-09-16T19:17:30.023Z,2.70
2022-09-16T19:20:00.274Z,3.00
2022-09-16T19:22:28.393Z,2.95
2022-09-16T19:24:56.499Z,3.47
2022-09-16T19:27:26.349Z,2.80
2022-09-16T19:29:54.394Z,2.65
2022-09-16T19:32:22.633Z,2.70
2022-09-16T19:34:50.991Z,2.90
2022-09-16T19:37:22.091Z,3.40
2022-09-16T19:39:51.210Z,2.58
2022-09-16T19:42:20.379Z,2.40
2022-09-16T19:44:49.863Z,2.40
2022-09-16T19:47:17.857Z,2.40
2022-09-16T19:49:45.853Z,2.08
2022-09-16T19:52:14.955Z,2.72
2022-09-16T19:54:43.154Z,3.75
2022-09-16T19:57:11.278Z,2.67
2022-09-16T19:59:39.277Z,2.95
2022-09-16T20:02:11.200Z,2.40
2022-09-16T20:04:39.509Z,2.60
2022-09-16T20:07:12.687Z,3.42
2022-09-16T20:09:41.852Z,2.67
2022-09-16T20:12:11.942Z,2.28
2022-09-16T20:14:41.623Z,2.25
2022-09-16T20:17:11.049Z,2.47
2022-09-16T20:19:39.208Z,2.38
2022-09-16T20:22:07.221Z,2.13
2022-09-16T20:24:35.591Z,2.65
2022-09-16T20:27:10.464Z,2.42
2022-09-16T20:29:38.684Z,2.22
2022-09-16T20:32:07.080Z,2.20
2022-09-16T20:34:38.268Z,2.00
2022-09-16T20:37:09.622Z,2.10
2022-09-16T20:39:48.984Z,2.20
2022-09-16T20:42:17.150Z,2.05
2022-09-16T20:44:48.867Z,1.92
2022-09-16T20:47:18.733Z,1.80
2022-09-16T20:49:49.271Z,1.83
2022-09-16T20:52:17.339Z,1.55
2022-09-16T20:54:45.709Z,1.85
2022-09-16T20:57:14.815Z,1.98
2022-09-16T20:59:42.819Z,2.00
2022-09-16T21:02:12.161Z,1.77
2022-09-16T21:04:42.393Z,2.10
2022-09-16T21:07:22.094Z,1.90
2022-09-16T21:09:52.419Z,1.60
2022-09-16T21:12:27.681Z,1.92
2022-09-16T21:14:57.667Z,2.20
2022-09-16T21:17:26.818Z,2.60
2022-09-16T21:19:57.102Z,1.63
2022-09-16T21:22:28.711Z,2.20
2022-09-16T21:25:10.229Z,1.90
2022-09-16T21:27:38.694Z,1.55
2022-09-16T21:30:09.311Z,1.70
2022-09-16T21:32:37.338Z,2.03
2022-09-16T21:35:07.422Z,1.70
2022-09-16T21:37:38.927Z,1.33
2022-09-16T21:40:09.739Z,1.58
2022-09-16T21:42:37.879Z,1.52
2022-09-16T21:45:07.446Z,1.58
2022-09-16T21:47:37.457Z,1.70
2022-09-16T21:50:08.367Z,1.15
2022-09-16T21:52:39.219Z,1.40
2022-09-16T21:55:12.450Z,1.75
2022-09-16T21:57:40.499Z,1.50
2022-09-16T22:00:10.323Z,1.50
2022-09-16T22:02:39.465Z,1.50
2022-09-16T22:05:16.806Z,1.40
2022-09-16T22:07:46.365Z,1.20
2022-09-16T22:10:14.439Z,1.70
2022-09-16T22:12:42.496Z,1.40
2022-09-16T22:15:12.803Z,1.40
2022-09-16T22:17:43.291Z,1.70
2022-09-16T22:20:13.165Z,2.05
2022-09-16T22:22:41.467Z,1.50
2022-09-16T22:25:11.316Z,1.52
2022-09-16T22:27:39.348Z,1.65
2022-09-16T22:30:08.379Z,1.63
2022-09-16T22:32:40.917Z,1.30
2022-09-16T22:35:10.291Z,1.08
2022-09-16T22:37:38.803Z,1.30
2022-09-16T22:40:07.923Z,1.08
2022-09-16T22:42:37.591Z,1.38
2022-09-16T22:45:07.596Z,1.45
2022-09-16T22:47:35.754Z,1.20
2022-09-16T22:50:04.318Z,1.30
2022-09-16T22:52:39.365Z,1.00
2022-09-16T22:55:10.873Z,1.33
2022-09-16T22:58:00.339Z,1.30
2022-09-16T23:00:30.689Z,1.40
2022-09-16T23:03:00.738Z,1.40
2022-09-16T23:05:28.919Z,1.50
2022-09-16T23:07:56.915Z,1.67
2022-09-16T23:10:30.120Z,1.33
2022-09-16T23:13:04.296Z,1.33
2022-09-16T23:15:34.596Z,1.13
2022-09-16T23:18:02.591Z,1.30
2022-09-16T23:20:38.918Z,1.10
2022-09-16T23:23:16.215Z,1.40
2022-09-16T23:25:44.950Z,1.33
2022-09-16T23:28:14.296Z,1.20
2022-09-16T23:30:52.523Z,1.10
2022-09-16T23:33:20.596Z,1.38
2022-09-16T23:35:51.785Z,1.13
2022-09-16T23:38:28.037Z,1.48
2022-09-16T23:40:56.527Z,1.20
2022-09-16T23:43:27.102Z,1.45
2022-09-16T23:46:00.778Z,1.30
2022-09-16T23:48:29.989Z,1.65
2022-09-16T23:50:58.818Z,1.20
2022-09-16T23:53:27.505Z,1.33
2022-09-16T23:55:55.931Z,1.40
2022-09-16T23:58:24.134Z,1.20
